ADDS METAR Data INFO
IDs: Format: Raw Decoded Include TAF

Data at: 1157 UTC 23 Jun 2018

K2V5 231155Z AUTO 27003KT 10SM CLR 11/11 A2991 RMK AO2
K2V5 231135Z AUTO 00000KT 10SM CLR 10/10 A2991 RMK AO2
K2V5 231115Z AUTO 25004KT 10SM CLR 11/11 A2991 RMK AO2
K2V5 231055Z AUTO 23004KT 10SM CLR 11/11 A2991 RMK AO2
K2V5 231035Z AUTO 25004KT 10SM CLR 10/10 A2991 RMK AO2
K2V5 231015Z AUTO 28005KT 10SM CLR 11/11 A2991 RMK AO2
K2V5 230955Z AUTO 28003KT 10SM CLR 11/11 A2991 RMK AO2
K2V5 230935Z AUTO 24004KT 10SM CLR 11/11 A2991 RMK AO2
K2V5 230915Z AUTO 27003KT 10SM CLR 12/12 A2991 RMK AO2
K2V5 230855Z AUTO 26003KT 10SM CLR 12/12 A2992 RMK AO2
K2V5 230835Z AUTO 00000KT 10SM CLR 12/12 A2992 RMK AO2
K2V5 230815Z AUTO 26006KT 10SM CLR 12/12 A2992 RMK AO2
K2V5 230755Z AUTO 27008KT 10SM CLR 13/13 A2991 RMK AO2
K2V5 230735Z AUTO 26006KT 10SM CLR 12/12 A2991 RMK AO2
K2V5 230715Z AUTO 24005KT 10SM CLR 12/12 A2993 RMK AO2
K2V5 230655Z AUTO 24005KT 10SM CLR 12/12 A2993 RMK AO2
K2V5 230635Z AUTO 25005KT 10SM CLR 13/13 A2995 RMK AO2 LTG DSNT E
K2V5 230615Z AUTO 25005KT 10SM CLR 13/12 A2995 RMK AO2
K2V5 230555Z AUTO 32005KT 10SM CLR 13/12 A2996 RMK AO2
K2V5 230535Z AUTO 32006KT 10SM CLR 14/11 A2997 RMK AO2
K2V5 230515Z AUTO 14004KT 10SM CLR 15/12 A2995 RMK AO2
K2V5 230455Z AUTO 13008KT 10SM CLR 15/12 A2994 RMK AO2
K2V5 230435Z AUTO 03010G16KT 10SM SCT120 16/12 A2998 RMK AO2
K2V5 230415Z AUTO 34006KT 10SM SCT120 14/11 A2996 RMK AO2
K2V5 230355Z AUTO 00000KT 10SM CLR 15/12 A2992 RMK AO2
K2V5 230335Z AUTO 19005KT 10SM CLR 15/12 A2990 RMK AO2
K2V5 230315Z AUTO 19008KT 10SM CLR 16/11 A2989 RMK AO2
K2V5 230255Z AUTO 18008KT 10SM CLR 17/11 A2988 RMK AO2
K2V5 230235Z AUTO 17008KT 10SM CLR 18/11 A2985 RMK AO2 LTG DSNT N
K2V5 230215Z AUTO 17007KT 10SM CLR 18/12 A2984 RMK AO2
K2V5 230155Z AUTO 16006KT 10SM CLR 20/11 A2982 RMK AO2 LTG DSNT N
K2V5 230135Z AUTO 15005KT 10SM CLR 21/11 A2982 RMK AO2
K2V5 230115Z AUTO 12005KT 10SM CLR 22/11 A2984 RMK AO2
K2V5 230055Z AUTO 05004KT 10SM CLR 22/10 A2987 RMK AO2
K2V5 230035Z AUTO 36005KT 10SM CLR 22/10 A2989 RMK AO2
K2V5 230015Z AUTO 12005KT 10SM CLR 22/10 A2985 RMK AO2
K2V5 222355Z AUTO 11005G08KT 10SM CLR 22/09 A2984 RMK AO2
K2V5 222335Z AUTO 10010G16KT 10SM CLR 23/09 A2983 RMK AO2
K2V5 222315Z AUTO 10015G20KT 10SM CLR 24/09 A2981 RMK AO2 LTG DSNT E
K2V5 222255Z AUTO 08010G18KT 10SM CLR 23/10 A2984 RMK AO2 LTG DSNT E
K2V5 222235Z AUTO 12014G20KT 10SM CLR 22/10 A2984 RMK AO2 LTG DSNT E AND SE
K2V5 222215Z AUTO 08013G20KT 10SM CLR 20/10 A2983 RMK AO2 LTG DSNT NE AND E
K2V5 222155Z AUTO 08011G15KT 10SM SCT120 18/10 A2984 RMK AO2 LTG DSNT E AND SE
K2V5 222135Z AUTO 07015G22KT 10SM SCT100 OVC120 17/11 A2986 RMK AO2 LTG DSNT E
K2V5 222115Z AUTO 10013G18KT 10SM VCTS SCT023 SCT050 OVC110 17/11 A2990 RMK AO2 LTG DSNT E AND SE
K2V5 222055Z AUTO 09018G23KT 7SM -RA SCT023 BKN075 OVC110 16/11 A2990 RMK AO2 LTG DSNT NE THRU S P0007
K2V5 222035Z AUTO 00000KT 10SM TSRA SCT075 OVC085 16/12 A3002 RMK AO2 LTG DSNT ALQS P0005
K2V5 222015Z AUTO 28016G21KT 10SM -TSRA SCT070 OVC085 16/12 A3001 RMK AO2 LTG DSNT E THRU SW P0002
K2V5 221955Z AUTO 31005KT 7SM -TSRA SCT029 BKN070 OVC085 16/13 A2999 RMK AO2 LTG DSNT ALQS P0071
K2V5 221935Z AUTO 00000KT 1 1/4SM +TSRA SCT019 BKN027 OVC034 16/13 A2998 RMK AO2 LTG DSNT ALQS P0058
K2V5 221915Z AUTO 27025G32KT 7SM +TSRA SCT022 BKN055 OVC100 23/12 A2997 RMK AO2 LTG DSNT ALQS P0006
K2V5 221855Z AUTO 16009G15KT 10SM VCTS SCT100 25/10 A2991 RMK AO2 LTG DSNT W AND NW
K2V5 221835Z AUTO 15012G16KT 10SM VCTS CLR 27/09 A2990 RMK AO2 LTG DSNT W
K2V5 221815Z AUTO 19015KT 10SM VCTS CLR 30/10 A2993 RMK AO2 LTG DSNT W
K2V5 221755Z AUTO 15012G24KT 130V190 10SM CLR 28/10 A2993 RMK AO2 LTG DSNT W
K2V5 221735Z AUTO 17010KT 10SM VCTS SCT055 26/10 A2995 RMK AO2 LTG DSNT W
K2V5 221715Z AUTO 17010G15KT 10SM SCT055 23/10 A2996 RMK AO2 LTG DSNT W
K2V5 221655Z AUTO 18011G17KT 10SM CLR 23/11 A2994 RMK AO2
K2V5 221635Z AUTO 17015KT 10SM CLR 23/11 A2995 RMK AO2
K2V5 221615Z AUTO 16016G23KT 10SM CLR 24/11 A2994 RMK AO2
K2V5 221555Z AUTO 17018G22KT 10SM CLR 23/11 A2994 RMK AO2
K2V5 221535Z AUTO 16014G18KT 10SM CLR 23/11 A2998 RMK AO2
K2V5 221515Z AUTO 16016G24KT 10SM CLR 22/11 A2997 RMK AO2
K2V5 221455Z AUTO 18008KT 10SM CLR 22/11 A3001 RMK AO2
K2V5 221435Z AUTO 19004KT 10SM SCT049 SCT055 20/11 A3003 RMK AO2
K2V5 221415Z AUTO 10SM SCT055 20/11 A3003 RMK AO2
K2V5 221355Z AUTO 10SM CLR 18/11 A3003 RMK AO2
K2V5 221335Z AUTO 10SM CLR 17/11 A3003 RMK AO2
K2V5 221315Z AUTO 00000KT 10SM CLR 16/12 A3003 RMK AO2
K2V5 221255Z AUTO 10SM CLR 14/12 A3001 RMK AO2
K2V5 221235Z AUTO 22003KT 10SM CLR 13/12 A3001 RMK AO2
K2V5 221215Z AUTO 17003KT 10SM CLR 14/12 A3001 RMK AO2
K2V5 221155Z AUTO 00000KT 10SM CLR 14/11 A3001 RMK AO2
K2V5 221135Z AUTO 00000KT 10SM CLR 13/11 A3001 RMK AO2
K2V5 221115Z AUTO 06003KT 10SM CLR 13/11 A3001 RMK AO2
K2V5 221055Z AUTO 00000KT 10SM CLR 14/11 A3001 RMK AO2
K2V5 221035Z AUTO 16003KT 10SM CLR 13/10 A3000 RMK AO2
K2V5 221015Z AUTO 00000KT 10SM CLR 14/11 A3001 RMK AO2
K2V5 220955Z AUTO 06003KT 10SM CLR 13/11 A3001 RMK AO2
K2V5 220935Z AUTO 13003KT 10SM CLR 15/11 A3001 RMK AO2
K2V5 220915Z AUTO 13003KT 10SM CLR 15/11 A3000 RMK AO2
K2V5 220855Z AUTO 19005KT 10SM CLR 14/11 A3002 RMK AO2
K2V5 220835Z AUTO 17006KT 10SM CLR 15/11 A3002 RMK AO2
K2V5 220755Z AUTO 00000KT 10SM BKN120 17/11 A3004 RMK AO2 LTG DSNT S
K2V5 220735Z AUTO 21006KT 10SM CLR 16/11 A3005 RMK AO2 LTG DSNT S
K2V5 220715Z AUTO 06003KT 10SM VCTS CLR 16/11 A3004 RMK AO2 LTG DSNT SE AND S
K2V5 220655Z AUTO 00000KT 10SM VCTS SCT120 17/11 A3006 RMK AO2 LTG DSNT S
K2V5 220635Z AUTO 00000KT 10SM CLR 17/11 A3005 RMK AO2
K2V5 220615Z AUTO 05004KT 10SM CLR 18/11 A3005 RMK AO2
K2V5 220555Z AUTO 09004KT 10SM CLR 18/11 A3005 RMK AO2
K2V5 220535Z AUTO 06007KT 10SM CLR 18/10 A3005 RMK AO2
K2V5 220515Z AUTO 06009KT 10SM CLR 17/11 A3005 RMK AO2
K2V5 220455Z AUTO 08005KT 10SM CLR 19/10 A3005 RMK AO2
K2V5 220435Z AUTO 13008KT 10SM CLR 20/09 A3003 RMK AO2
K2V5 220415Z AUTO 14006KT 10SM CLR 20/10 A3004 RMK AO2
K2V5 220355Z AUTO 14006KT 10SM CLR 20/10 A3005 RMK AO2
K2V5 220335Z AUTO 09003KT 10SM CLR 20/11 A3007 RMK AO2
K2V5 220315Z AUTO 00000KT 10SM CLR 21/10 A3010 RMK AO2
K2V5 220255Z AUTO 04005KT 10SM CLR 20/11 A3007 RMK AO2
K2V5 220235Z AUTO 06006KT 10SM CLR 21/11 A3005 RMK AO2
K2V5 220215Z AUTO 07004KT 10SM CLR 21/10 A3003 RMK AO2
K2V5 220155Z AUTO 06008KT 10SM CLR 22/10 A3003 RMK AO2
K2V5 220135Z AUTO 08005KT 10SM CLR 23/08 A3003 RMK AO2
K2V5 220115Z AUTO 08007KT 10SM CLR 25/08 A3002 RMK AO2
K2V5 220055Z AUTO 07010KT 10SM CLR 26/08 A3001 RMK AO2
K2V5 220035Z AUTO 06006KT 10SM CLR 26/08 A3002 RMK AO2
K2V5 220015Z AUTO 04009KT 10SM CLR 27/07 A3001 RMK AO2